Download Report Download Report to Microsoft Excel
Quinebaug River at Quinebaug
 Total Drainage Area: 155 sq. miles 
 Drainage Area Controlled by Corps Dams: ?? sq. miles (??%) 
 Warning Flow/Stage: 2,570 cfs / 6.0 feet 
 Flood Flow/Stage: ?? cfs / ?? feet 
Date Time
(Eastern)
Stage
(ft)
Flow
(cfs)
CSM
(cfs / sq. mi.)
21 Jul 2024 03:00 PM 2.48 69 .4
21 Jul 2024 02:45 PM 2.48 69 .4
21 Jul 2024 02:30 PM 2.48 69 .4
21 Jul 2024 02:15 PM 2.48 69 .4
21 Jul 2024 02:00 PM 2.48 69 .4
21 Jul 2024 01:45 PM 2.48 69 .4
21 Jul 2024 01:30 PM 2.48 69 .4
21 Jul 2024 01:15 PM 2.48 69 .4
21 Jul 2024 01:00 PM 2.49 71 .5
21 Jul 2024 12:45 PM 2.49 71 .5
21 Jul 2024 12:30 PM 2.49 71 .5
21 Jul 2024 12:15 PM 2.49 71 .5
21 Jul 2024 12:00 PM 2.49 71 .5
21 Jul 2024 11:45 AM 2.49 71 .5
21 Jul 2024 11:30 AM 2.49 71 .5
21 Jul 2024 11:15 AM 2.48 69 .4
21 Jul 2024 11:00 AM 2.48 69 .4
21 Jul 2024 10:45 AM 2.48 69 .4
21 Jul 2024 10:30 AM 2.48 69 .4
21 Jul 2024 10:15 AM 2.48 69 .4
21 Jul 2024 10:00 AM 2.48 69 .4
21 Jul 2024 09:45 AM 2.48 69 .4
21 Jul 2024 09:30 AM 2.48 69 .4
21 Jul 2024 09:15 AM 2.48 69 .4
21 Jul 2024 09:00 AM 2.49 71 .5
21 Jul 2024 08:45 AM 2.49 71 .5
21 Jul 2024 08:30 AM 2.49 71 .5
21 Jul 2024 08:15 AM 2.49 71 .5
21 Jul 2024 08:00 AM 2.49 71 .5
21 Jul 2024 07:45 AM 2.49 71 .5
21 Jul 2024 07:30 AM 2.49 71 .5
21 Jul 2024 07:15 AM 2.49 71 .5
21 Jul 2024 07:00 AM 2.49 71 .5
21 Jul 2024 06:45 AM 2.49 71 .5
21 Jul 2024 06:30 AM 2.49 71 .5
21 Jul 2024 06:15 AM 2.49 71 .5
21 Jul 2024 06:00 AM 2.49 71 .5
21 Jul 2024 05:45 AM 2.49 71 .5
21 Jul 2024 05:30 AM 2.49 71 .5
21 Jul 2024 05:15 AM 2.49 71 .5
21 Jul 2024 05:00 AM 2.49 71 .5
21 Jul 2024 04:45 AM 2.49 71 .5
21 Jul 2024 04:30 AM 2.49 71 .5
21 Jul 2024 04:15 AM 2.49 71 .5
21 Jul 2024 04:00 AM 2.49 71 .5
21 Jul 2024 03:45 AM 2.50 73 .5
21 Jul 2024 03:30 AM 2.50 73 .5
21 Jul 2024 03:15 AM 2.50 73 .5
21 Jul 2024 03:00 AM 2.50 73 .5
21 Jul 2024 02:45 AM 2.51 75 .5
21 Jul 2024 02:30 AM 2.51 75 .5
21 Jul 2024 02:15 AM 2.51 75 .5
21 Jul 2024 02:00 AM 2.51 75 .5
21 Jul 2024 01:45 AM 2.52 77 .5
21 Jul 2024 01:30 AM 2.52 77 .5
21 Jul 2024 01:15 AM 2.53 79 .5
21 Jul 2024 01:00 AM 2.54 81 .5
21 Jul 2024 12:45 AM 2.55 84 .5
21 Jul 2024 12:30 AM 2.56 86 .6
21 Jul 2024 12:15 AM 2.57 88 .6
21 Jul 2024 12:00 AM 2.59 93 .6
20 Jul 2024 11:45 PM 2.61 98 .6
20 Jul 2024 11:30 PM 2.62 100 .7
20 Jul 2024 11:15 PM 2.63 103 .7
20 Jul 2024 11:00 PM 2.63 103 .7
20 Jul 2024 10:45 PM 2.63 103 .7
20 Jul 2024 10:30 PM 2.60 95 .6
20 Jul 2024 10:15 PM 2.56 86 .6
20 Jul 2024 10:00 PM 2.52 77 .5
20 Jul 2024 09:45 PM 2.50 73 .5
20 Jul 2024 09:30 PM 2.49 71 .5
20 Jul 2024 09:15 PM 2.48 69 .4
20 Jul 2024 09:00 PM 2.48 69 .4
20 Jul 2024 08:45 PM 2.48 69 .4
20 Jul 2024 08:30 PM 2.49 71 .5
20 Jul 2024 08:15 PM 2.49 71 .5
20 Jul 2024 08:00 PM 2.49 71 .5
20 Jul 2024 07:45 PM 2.49 71 .5
20 Jul 2024 07:30 PM 2.49 71 .5
20 Jul 2024 07:15 PM 2.49 71 .5
20 Jul 2024 07:00 PM 2.49 71 .5
20 Jul 2024 06:45 PM 2.48 69 .4
20 Jul 2024 06:30 PM 2.48 69 .4
20 Jul 2024 06:15 PM 2.48 69 .4
20 Jul 2024 06:00 PM 2.48 69 .4
20 Jul 2024 05:45 PM 2.48 69 .4
20 Jul 2024 05:30 PM 2.48 69 .4
20 Jul 2024 05:15 PM 2.48 69 .4
20 Jul 2024 05:00 PM 2.48 69 .4
20 Jul 2024 04:45 PM 2.48 69 .4
20 Jul 2024 04:30 PM 2.48 69 .4
20 Jul 2024 04:15 PM 2.48 69 .4
20 Jul 2024 04:00 PM 2.49 71 .5
20 Jul 2024 03:45 PM 2.49 71 .5
20 Jul 2024 03:30 PM 2.49 71 .5
20 Jul 2024 03:15 PM 2.49 71 .5
20 Jul 2024 03:00 PM 2.49 71 .5
20 Jul 2024 02:45 PM 2.49 71 .5
20 Jul 2024 02:30 PM 2.49 71 .5
20 Jul 2024 02:15 PM 2.49 71 .5
20 Jul 2024 02:00 PM 2.49 71 .5
20 Jul 2024 01:45 PM 2.49 71 .5
20 Jul 2024 01:30 PM 2.50 73 .5
20 Jul 2024 01:15 PM 2.50 73 .5
20 Jul 2024 01:00 PM 2.51 75 .5
20 Jul 2024 12:45 PM 2.51 75 .5
20 Jul 2024 12:30 PM 2.52 77 .5
20 Jul 2024 12:15 PM 2.51 75 .5
20 Jul 2024 12:00 PM 2.51 75 .5
20 Jul 2024 11:45 AM 2.53 79 .5
20 Jul 2024 11:30 AM 2.57 88 .6
20 Jul 2024 11:15 AM 2.62 100 .7
20 Jul 2024 11:00 AM 2.64 105 .7
20 Jul 2024 10:45 AM 2.58 90 .6
20 Jul 2024 10:30 AM 2.50 73 .5
20 Jul 2024 10:15 AM 2.50 73 .5
20 Jul 2024 10:00 AM 2.50 73 .5
20 Jul 2024 09:45 AM 2.50 73 .5
20 Jul 2024 09:30 AM 2.50 73 .5
20 Jul 2024 09:15 AM 2.50 73 .5
20 Jul 2024 09:00 AM 2.50 73 .5
20 Jul 2024 08:45 AM 2.50 73 .5
20 Jul 2024 08:30 AM 2.51 75 .5
20 Jul 2024 08:15 AM 2.51 75 .5
20 Jul 2024 08:00 AM 2.51 75 .5
20 Jul 2024 07:45 AM 2.51 75 .5
20 Jul 2024 07:30 AM 2.51 75 .5
20 Jul 2024 07:15 AM 2.51 75 .5
20 Jul 2024 07:00 AM 2.51 75 .5
20 Jul 2024 06:45 AM 2.51 75 .5
20 Jul 2024 06:30 AM 2.51 75 .5
20 Jul 2024 06:15 AM 2.51 75 .5
20 Jul 2024 06:00 AM 2.51 75 .5
20 Jul 2024 05:45 AM 2.52 77 .5
20 Jul 2024 05:30 AM 2.51 75 .5
20 Jul 2024 05:15 AM 2.52 77 .5
20 Jul 2024 05:00 AM 2.52 77 .5
20 Jul 2024 04:45 AM 2.52 77 .5
20 Jul 2024 04:30 AM 2.52 77 .5
20 Jul 2024 04:15 AM 2.52 77 .5
20 Jul 2024 04:00 AM 2.52 77 .5
20 Jul 2024 03:45 AM 2.52 77 .5
20 Jul 2024 03:30 AM 2.52 77 .5
20 Jul 2024 03:15 AM 2.53 79 .5
20 Jul 2024 03:00 AM 2.53 79 .5
20 Jul 2024 02:45 AM 2.53 79 .5
20 Jul 2024 02:30 AM 2.53 79 .5
20 Jul 2024 02:15 AM 2.53 79 .5
20 Jul 2024 02:00 AM 2.53 79 .5
20 Jul 2024 01:45 AM 2.53 79 .5
20 Jul 2024 01:30 AM 2.53 79 .5
20 Jul 2024 01:15 AM 2.53 79 .5
20 Jul 2024 01:00 AM 2.54 81 .5
20 Jul 2024 12:45 AM 2.54 81 .5
20 Jul 2024 12:30 AM 2.54 81 .5
20 Jul 2024 12:15 AM 2.54 81 .5
20 Jul 2024 12:00 AM 2.54 81 .5
19 Jul 2024 11:45 PM 2.55 84 .5
19 Jul 2024 11:30 PM 2.55 84 .5
19 Jul 2024 11:15 PM 2.55 84 .5
19 Jul 2024 11:00 PM 2.56 86 .6
19 Jul 2024 10:45 PM 2.56 86 .6
19 Jul 2024 10:30 PM 2.56 86 .6
19 Jul 2024 10:15 PM 2.57 88 .6
19 Jul 2024 10:00 PM 2.57 88 .6
19 Jul 2024 09:45 PM 2.58 90 .6
19 Jul 2024 09:30 PM 2.58 90 .6
19 Jul 2024 09:15 PM 2.59 93 .6
19 Jul 2024 09:00 PM 2.59 93 .6
19 Jul 2024 08:45 PM 2.59 93 .6
19 Jul 2024 08:30 PM 2.59 93 .6
19 Jul 2024 08:15 PM 2.59 93 .6
19 Jul 2024 08:00 PM 2.59 93 .6
Report Generated July 21, 2024 03:49 pm